Time;durP1;ratioP1;P1;durP2;ratioP2;P2;SDS_P1;SDS_P2;PMS_P1;PMS_P2;Temp;Humidity;BMP_temperature;BMP_pressure;BME280_temperature;BME280_humidity;BME280_pressure;Samples;Min_cycle;Max_cycle;Signal;HPM_P1;HPM_P2
2022/02/01 00:01:44;;;;;;;25.55;10.45;;;;;;;0.60;100.00;100619.97;7393744;19;20182;-49
2022/02/01 00:04:18;;;;;;;29.23;10.57;;;;;;;0.59;100.00;100618.22;7396319;19;20123;-48
2022/02/01 00:06:58;;;;;;;31.63;10.90;;;;;;;0.60;100.00;100617.44;7393117;19;20504;-47
2022/02/01 00:09:35;;;;;;;28.70;9.68;;;;;;;0.58;100.00;100610.47;7397038;19;20125;-48
2022/02/01 00:12:14;;;;;;;29.58;10.23;;;;;;;0.60;100.00;100619.97;7393540;19;20194;-47
2022/02/01 00:15:07;;;;;;;31.70;10.65;;;;;;;0.66;100.00;100623.00;7397982;19;20525;-51
2022/02/01 00:17:57;;;;;;;27.10;11.10;;;;;;;0.63;100.00;100621.88;7393199;19;20190;-50
2022/02/01 00:20:50;;;;;;;25.35;9.23;;;;;;;0.62;100.00;100613.38;7397203;19;20129;-47
2022/02/01 00:34:34;;;;;;;27.83;9.25;;;;;;;0.61;100.00;100591.28;7396365;19;20123;-45
2022/02/01 00:37:09;;;;;;;25.50;9.07;;;;;;;0.60;100.00;100594.59;7392925;19;20612;-45
2022/02/01 00:39:42;;;;;;;19.00;7.10;;;;;;;0.62;100.00;100597.25;7393982;19;20119;-46
2022/02/01 00:42:12;;;;;;;22.25;8.57;;;;;;;0.62;100.00;100587.97;7389578;19;20190;-48
2022/02/01 00:44:43;;;;;;;23.38;8.02;;;;;;;0.70;100.00;100595.28;7395927;19;20513;-48
2022/02/01 00:47:12;;;;;;;26.73;10.63;;;;;;;0.69;100.00;100594.44;7393302;19;20194;-46
2022/02/01 00:49:45;;;;;;;24.58;7.65;;;;;;;0.73;100.00;100593.91;7395987;19;20522;-47
2022/02/01 00:52:14;;;;;;;16.80;7.07;;;;;;;0.74;100.00;100592.25;7392481;19;20185;-45
2022/02/01 00:54:44;;;;;;;21.73;8.43;;;;;;;0.79;100.00;100585.88;7395837;19;20214;-50
2022/02/01 00:57:14;;;;;;;26.83;7.68;;;;;;;0.83;100.00;100603.16;7393057;19;20200;-45
2022/02/01 00:59:44;;;;;;;26.80;7.65;;;;;;;0.89;100.00;100593.47;7395171;19;20259;-50
2022/02/01 01:02:14;;;;;;;17.35;6.95;;;;;;;0.88;100.00;100601.81;7392560;19;20423;-49
2022/02/01 01:04:46;;;;;;;21.95;8.65;;;;;;;0.92;100.00;100613.16;7395931;19;20127;-47
2022/02/01 01:07:16;;;;;;;16.70;6.88;;;;;;;0.98;100.00;100600.03;7393233;19;20194;-49
2022/02/01 01:09:45;;;;;;;22.55;6.93;;;;;;;1.12;100.00;100611.25;7395899;19;20139;-48
2022/02/01 01:12:16;;;;;;;23.20;7.40;;;;;;;1.17;100.00;100589.59;7392527;19;20191;-50
2022/02/01 01:15:09;;;;;;;26.25;5.97;;;;;;;1.29;100.00;100604.94;7395324;19;20115;-48
2022/02/01 01:44:50;;;;;;;12.48;3.42;;;;;;;1.41;100.00;100582.09;7402087;19;20127;-51
2022/02/01 01:55:31;;;;;;;9.38;2.35;;;;;;;1.40;100.00;100577.78;7399589;19;20135;-47
2022/02/01 01:58:01;;;;;;;14.93;2.30;;;;;;;1.43;100.00;100583.97;7399018;19;20196;-48
2022/02/01 02:00:45;;;;;;;14.48;2.63;;;;;;;1.38;100.00;100587.81;7401949;19;20123;-47
2022/02/01 02:03:14;;;;;;;17.90;3.13;;;;;;;1.33;100.00;100577.31;7400580;19;20185;-51
2022/02/01 02:05:44;;;;;;;10.63;2.10;;;;;;;1.28;100.00;100577.75;7397909;19;20210;-51
2022/02/01 02:08:16;;;;;;;15.95;2.13;;;;;;;1.25;100.00;100574.94;7400967;19;20184;-50
2022/02/01 02:10:55;;;;;;;12.15;1.85;;;;;;;1.25;100.00;100564.78;7383924;19;20178;-45
2022/02/01 02:16:07;;;;;;;20.40;2.55;;;;;;;1.16;100.00;100560.78;7397442;19;20197;-49
2022/02/01 02:18:38;;;;;;;8.98;2.20;;;;;;;1.17;100.00;100554.91;7404707;19;20131;-46
2022/02/01 02:21:10;;;;;;;18.85;2.33;;;;;;;1.13;100.00;100567.28;7398149;19;20185;-49
2022/02/01 02:23:39;;;;;;;10.98;1.70;;;;;;;1.13;100.00;100563.06;7401935;19;20175;-47
2022/02/01 02:26:14;;;;;;;16.70;2.03;;;;;;;1.14;100.00;100569.94;7396683;19;20194;-52
2022/02/01 02:28:44;;;;;;;16.10;1.95;;;;;;;1.08;100.00;100570.34;7401989;19;20125;-49
2022/02/01 02:31:14;;;;;;;12.45;1.73;;;;;;;1.07;100.00;100568.59;7391242;19;20190;-47
2022/02/01 02:33:44;;;;;;;13.00;1.88;;;;;;;1.04;100.00;100577.63;7400834;19;20131;-46
2022/02/01 02:36:28;;;;;;;13.52;1.98;;;;;;;1.02;100.00;100579.16;7396541;19;20541;-45
2022/02/01 02:39:02;;;;;;;13.45;2.58;;;;;;;1.04;100.00;100582.72;7404193;19;20182;-48
2022/02/01 02:41:34;;;;;;;13.73;2.92;;;;;;;1.03;100.00;100593.66;7399168;19;20190;-45
2022/02/01 02:46:49;;;;;;;14.02;2.50;;;;;;;0.98;100.00;100588.22;7388893;19;20193;-46
2022/02/01 02:49:20;;;;;;;14.32;2.30;;;;;;;0.97;100.00;100575.38;7399484;19;20536;-46
2022/02/01 02:51:53;;;;;;;16.98;2.30;;;;;;;1.00;100.00;100584.13;7398713;19;20183;-48
2022/02/01 02:54:25;;;;;;;6.45;1.65;;;;;;;1.00;100.00;100580.69;7401691;19;20127;-50
2022/02/01 02:56:56;;;;;;;15.50;2.25;;;;;;;0.99;100.00;100584.91;7397805;19;20197;-48
2022/02/01 02:59:27;;;;;;;30.23;6.95;;;;;;;1.17;100.00;100587.97;7400390;19;20535;-50
2022/02/01 03:01:58;;;;;;;17.88;2.70;;;;;;;1.15;100.00;100586.97;7394168;19;20254;-48
2022/02/01 03:04:30;;;;;;;17.17;3.10;;;;;;;1.15;100.00;100591.16;7400702;19;20119;-50
2022/02/01 03:07:04;;;;;;;20.30;5.22;;;;;;;1.18;100.00;100589.72;7396919;19;20190;-49
2022/02/01 03:09:39;;;;;;;21.42;2.35;;;;;;;1.12;100.00;100586.72;7401053;19;20167;-50
2022/02/01 03:12:13;;;;;;;12.38;2.40;;;;;;;1.09;100.00;100583.97;7397694;19;20446;-45
2022/02/01 03:14:50;;;;;;;28.20;2.88;;;;;;;1.12;100.00;100581.63;7400098;19;20119;-48
2022/02/01 03:19:46;;;;;;;12.27;1.38;;;;;;;1.08;100.00;100569.47;7374486;19;20189;-48
2022/02/01 03:20:09;;;;;;;9.75;2.20;;;;;;;1.14;100.00;100558.88;7399253;19;20386;-48
2022/02/01 03:22:41;;;;;;;17.58;1.90;;;;;;;1.12;100.00;100551.13;7397468;19;20178;-50
2022/02/01 03:25:11;;;;;;;18.83;2.83;;;;;;;1.14;100.00;100557.25;7404471;19;20398;-49
2022/02/01 03:27:40;;;;;;;11.93;1.92;;;;;;;1.16;100.00;100560.78;7399618;19;20197;-49
2022/02/01 03:30:14;;;;;;;9.25;2.53;;;;;;;1.17;100.00;100554.91;7400435;19;20130;-46
2022/02/01 03:32:44;;;;;;;15.18;2.15;;;;;;;1.22;100.00;100555.25;7376811;19;20186;-52
2022/02/01 03:35:13;;;;;;;12.35;2.47;;;;;;;1.24;100.00;100553.75;7399351;19;20123;-48
2022/02/01 03:37:45;;;;;;;9.52;1.83;;;;;;;1.27;100.00;100560.72;7398883;19;20197;-46
2022/02/01 03:40:18;;;;;;;12.63;2.28;;;;;;;1.35;100.00;100562.19;7398662;19;20123;-45
2022/02/01 03:42:47;;;;;;;16.58;2.58;;;;;;;1.39;100.00;100550.59;7396929;19;20186;-47
2022/02/01 03:45:17;;;;;;;21.60;2.90;;;;;;;1.44;100.00;100547.59;7398377;19;20513;-50
2022/02/01 03:47:46;;;;;;;16.00;1.90;;;;;;;1.40;100.00;100555.78;7396522;19;20191;-49
2022/02/01 03:50:16;;;;;;;21.65;2.60;;;;;;;1.44;100.00;100559.44;7399282;19;20123;-50
2022/02/01 03:52:48;;;;;;;15.93;1.80;;;;;;;1.43;100.00;100556.00;7396377;19;20595;-48
2022/02/01 03:55:18;;;;;;;11.38;2.50;;;;;;;1.43;100.00;100557.69;7398697;19;20127;-46
2022/02/01 03:57:47;;;;;;;19.55;3.03;;;;;;;1.42;100.00;100553.34;7396367;19;20189;-48
2022/02/01 04:00:17;;;;;;;16.98;2.40;;;;;;;1.40;100.00;100547.25;7398345;19;20123;-49
2022/02/01 04:02:47;;;;;;;10.63;2.15;;;;;;;1.44;100.00;100549.28;7372963;19;20249;-47
2022/02/01 04:05:16;;;;;;;12.98;2.30;;;;;;;1.42;100.00;100546.63;7398119;19;20138;-49
2022/02/01 04:07:48;;;;;;;15.50;3.22;;;;;;;1.44;100.00;100550.16;7388362;19;20194;-50
2022/02/01 04:10:20;;;;;;;11.85;1.90;;;;;;;1.40;100.00;100545.63;7398716;19;20123;-50
2022/02/01 04:12:50;;;;;;;15.85;3.25;;;;;;;1.37;100.00;100547.06;7396437;19;20190;-49
2022/02/01 04:15:23;;;;;;;17.08;1.60;;;;;;;1.29;100.00;100543.91;7397782;19;20133;-49
2022/02/01 04:17:54;;;;;;;17.98;2.35;;;;;;;1.32;100.00;100541.59;7372880;19;20187;-52
2022/02/01 04:20:25;;;;;;;25.30;2.97;;;;;;;1.32;100.00;100544.13;7397524;19;20123;-46
2022/02/01 04:22:57;;;;;;;22.00;2.85;;;;;;;1.33;100.00;100539.19;7372651;19;20585;-45
2022/02/01 04:25:27;;;;;;;13.48;2.60;;;;;;;1.32;100.00;100536.50;7398337;19;20129;-47
2022/02/01 04:27:57;;;;;;;11.93;1.40;;;;;;;1.27;100.00;100546.34;7395327;19;20196;-49
2022/02/01 04:30:26;;;;;;;9.35;1.90;;;;;;;1.29;100.00;100544.78;7397860;19;20125;-51
2022/02/01 04:32:57;;;;;;;19.92;2.40;;;;;;;1.30;100.00;100545.69;7395280;19;20254;-51
2022/02/01 04:35:28;;;;;;;11.25;1.95;;;;;;;1.25;100.00;100534.28;7397229;19;20123;-50
2022/02/01 04:38:00;;;;;;;9.77;1.73;;;;;;;1.26;100.00;100533.50;7395223;19;20190;-53
2022/02/01 04:40:33;;;;;;;18.05;1.85;;;;;;;1.26;100.00;100538.59;7396986;19;20119;-51
2022/02/01 04:43:04;;;;;;;12.88;1.70;;;;;;;1.18;100.00;100543.97;7397671;19;20174;-50
2022/02/01 04:45:33;;;;;;;11.80;2.03;;;;;;;1.21;100.00;100531.53;7396795;19;20740;-51
2022/02/01 04:48:04;;;;;;;17.77;2.85;;;;;;;1.28;100.00;100529.44;7397138;19;20187;-46
2022/02/01 04:50:34;;;;;;;9.35;1.70;;;;;;;1.33;100.00;100528.13;7398058;19;20394;-49
2022/02/01 04:53:06;;;;;;;8.77;1.80;;;;;;;1.28;100.00;100537.94;7397298;19;20186;-47
2022/02/01 04:55:49;;;;;;;18.77;1.70;;;;;;;1.31;100.00;100542.38;7396888;19;20411;-49
2022/02/01 04:58:19;;;;;;;15.30;2.55;;;;;;;1.36;100.00;100533.44;7397067;19;20633;-49
2022/02/01 05:00:49;;;;;;;14.88;2.28;;;;;;;1.39;100.00;100531.09;7388493;19;20130;-47
2022/02/01 05:03:19;;;;;;;12.57;2.05;;;;;;;1.45;100.00;100531.56;7397114;19;20123;-46
2022/02/01 05:05:49;;;;;;;17.45;2.72;;;;;;;1.43;100.00;100543.28;7394158;19;20172;-48
2022/02/01 05:08:21;;;;;;;14.32;2.90;;;;;;;1.47;100.00;100535.13;7396907;19;20179;-47
2022/02/01 05:10:50;;;;;;;16.13;2.20;;;;;;;1.50;100.00;100541.22;7394267;19;20116;-45
2022/02/01 05:16:07;;;;;;;17.13;3.25;;;;;;;1.58;100.00;100550.28;7400282;19;20253;-48
2022/02/01 05:18:45;;;;;;;15.38;2.80;;;;;;;1.64;100.00;100547.34;7404455;19;20150;-49
2022/02/01 05:21:20;;;;;;;23.98;2.90;;;;;;;1.65;100.00;100555.09;7401384;19;20182;-45
2022/02/01 05:23:54;;;;;;;20.70;2.80;;;;;;;1.66;100.00;100558.50;7404400;19;20123;-47
2022/02/01 05:26:27;;;;;;;15.65;3.33;;;;;;;1.72;100.00;100558.97;7401972;19;20200;-48
2022/02/01 05:28:56;;;;;;;9.27;1.65;;;;;;;1.70;100.00;100556.28;7404689;19;20119;-46
2022/02/01 05:31:25;;;;;;;11.80;1.77;;;;;;;1.73;100.00;100559.06;7401390;19;20193;-49
2022/02/01 05:33:55;;;;;;;19.58;3.55;;;;;;;1.75;100.00;100544.81;7404177;19;20575;-46
2022/02/01 05:36:24;;;;;;;15.02;2.85;;;;;;;1.80;100.00;100549.34;7400886;19;20191;-44
2022/02/01 05:38:57;;;;;;;18.13;3.63;;;;;;;1.79;100.00;100538.28;7403998;19;20123;-48
2022/02/01 05:41:27;;;;;;;7.05;2.00;;;;;;;1.85;100.00;100527.69;7400284;19;20841;-49
2022/02/01 05:43:57;;;;;;;6.47;1.20;;;;;;;1.87;100.00;100526.13;7403688;19;20135;-51
2022/02/01 05:46:26;;;;;;;12.00;2.15;;;;;;;1.89;100.00;100522.03;7399095;19;20190;-46
2022/02/01 05:48:56;;;;;;;8.63;2.33;;;;;;;1.84;100.00;100519.16;7403556;19;20119;-47
2022/02/01 05:51:26;;;;;;;13.85;2.88;;;;;;;1.84;100.00;100510.66;7402568;19;20577;-48
2022/02/01 05:53:58;;;;;;;6.03;0.95;;;;;;;1.78;100.00;100516.16;7403555;19;20120;-46
2022/02/01 05:56:28;;;;;;;9.73;1.55;;;;;;;1.80;100.00;100511.19;7398662;19;20574;-46
2022/02/01 05:58:57;;;;;;;3.15;0.90;;;;;;;1.81;100.00;100508.78;7403118;19;20135;-47
2022/02/01 06:01:26;;;;;;;6.50;1.88;;;;;;;1.69;100.00;100496.00;7399498;19;20183;-47
2022/02/01 06:03:56;;;;;;;17.37;2.57;;;;;;;1.75;100.00;100488.84;7403181;19;20189;-48
2022/02/01 06:06:26;;;;;;;15.00;1.60;;;;;;;1.73;100.00;100490.38;7398455;19;20407;-48
2022/02/01 06:08:58;;;;;;;7.93;2.53;;;;;;;1.68;100.00;100489.16;7402958;19;20383;-47
2022/02/01 06:11:29;;;;;;;12.00;1.98;;;;;;;1.76;100.00;100492.28;7399838;19;20195;-50
2022/02/01 06:13:58;;;;;;;7.28;1.42;;;;;;;1.66;100.00;100485.63;7402597;19;20124;-48
2022/02/01 06:16:27;;;;;;;13.10;1.92;;;;;;;1.66;100.00;100482.19;7392817;19;20242;-47
2022/02/01 06:18:57;;;;;;;9.77;1.55;;;;;;;1.63;100.00;100471.81;7407211;19;20119;-49
2022/02/01 06:21:27;;;;;;;15.40;2.13;;;;;;;1.62;100.00;100473.44;7399314;19;20182;-47
2022/02/01 06:24:00;;;;;;;8.30;3.55;;;;;;;1.61;100.00;100481.88;7399853;19;20703;-48
2022/02/01 06:26:29;;;;;;;16.52;2.40;;;;;;;1.61;100.00;100475.13;7397879;19;20596;-50
2022/02/01 06:28:59;;;;;;;13.48;1.98;;;;;;;1.61;100.00;100471.69;7402086;19;20123;-52
2022/02/01 06:31:28;;;;;;;11.05;2.33;;;;;;;1.61;100.00;100477.66;7398931;19;20242;-51
2022/02/01 06:33:58;;;;;;;11.68;2.28;;;;;;;1.68;100.00;100473.91;7401902;19;20404;-52
2022/02/01 06:36:28;;;;;;;8.20;2.03;;;;;;;1.69;100.00;100485.84;7389569;19;20190;-46
2022/02/01 06:39:01;;;;;;;3.78;1.10;;;;;;;1.68;100.00;100484.06;7401952;19;20119;-54
2022/02/01 06:41:30;;;;;;;16.25;2.67;;;;;;;1.65;100.00;100481.31;7398856;19;20443;-45
2022/02/01 06:44:00;;;;;;;16.38;2.42;;;;;;;1.70;100.00;100477.44;7401706;19;20123;-48
2022/02/01 06:46:29;;;;;;;9.60;1.40;;;;;;;1.65;100.00;100471.16;7396838;19;20518;-48
2022/02/01 06:48:59;;;;;;;6.03;1.23;;;;;;;1.63;100.00;100469.25;7401244;19;20514;-49
2022/02/01 06:51:29;;;;;;;8.25;1.67;;;;;;;1.65;100.00;100458.44;7396158;19;20430;-49
2022/02/01 06:54:02;;;;;;;9.35;1.55;;;;;;;1.62;100.00;100453.09;7401550;19;20119;-45
2022/02/01 06:56:33;;;;;;;7.88;2.00;;;;;;;1.61;100.00;100453.88;7396890;19;20187;-46
2022/02/01 06:59:04;;;;;;;11.68;1.30;;;;;;;1.59;100.00;100440.19;7401413;19;20123;-46
2022/02/01 07:01:34;;;;;;;10.35;2.08;;;;;;;1.57;100.00;100427.34;7397147;19;20186;-48
2022/02/01 07:04:05;;;;;;;8.48;2.20;;;;;;;1.57;100.00;100421.34;7401179;19;20127;-46
2022/02/01 07:06:35;;;;;;;5.30;1.38;;;;;;;1.67;100.00;100408.53;7391496;19;20461;-48
2022/02/01 07:09:07;;;;;;;15.10;2.67;;;;;;;1.72;100.00;100408.88;7401002;19;20418;-52
2022/02/01 07:11:38;;;;;;;10.65;2.45;;;;;;;1.79;100.00;100405.13;7397367;19;20178;-46
2022/02/01 07:14:08;;;;;;;13.38;1.73;;;;;;;1.75;100.00;100397.25;7405029;19;20806;-47
2022/02/01 07:16:38;;;;;;;16.50;1.95;;;;;;;1.77;100.00;100404.09;7396099;19;20205;-49
2022/02/01 07:19:08;;;;;;;9.60;1.50;;;;;;;1.74;100.00;100408.22;7400558;19;20127;-51
2022/02/01 07:21:37;;;;;;;7.68;1.63;;;;;;;1.65;100.00;100411.75;7391614;19;20200;-48
2022/02/01 07:24:15;;;;;;;4.20;1.17;;;;;;;1.65;100.00;100412.66;7400297;19;20429;-45
2022/02/01 07:26:53;;;;;;;6.47;1.23;;;;;;;1.59;100.00;100409.66;7398367;19;20439;-54
2022/02/01 07:29:23;;;;;;;7.75;0.80;;;;;;;1.60;100.00;100408.88;7400374;19;20136;-45
2022/02/01 07:31:52;;;;;;;5.22;1.02;;;;;;;1.58;100.00;100406.22;7398041;19;20238;-48
2022/02/01 07:34:22;;;;;;;14.20;1.67;;;;;;;1.58;100.00;100390.06;7401164;19;20426;-46
2022/02/01 07:36:51;;;;;;;14.95;1.80;;;;;;;1.60;100.00;100376.69;7395609;19;20196;-48
2022/02/01 07:39:23;;;;;;;6.70;1.45;;;;;;;1.63;100.00;100362.44;7399856;19;20119;-45
2022/02/01 07:41:53;;;;;;;1.60;0.80;;;;;;;1.61;100.00;100347.97;7396537;19;20186;-50
2022/02/01 07:44:23;;;;;;;9.25;2.30;;;;;;;1.63;100.00;100352.25;7399410;19;20123;-50
2022/02/01 07:46:52;;;;;;;14.23;2.83;;;;;;;1.65;100.00;100350.69;7396044;19;20203;-47
2022/02/01 07:49:22;;;;;;;11.20;2.13;;;;;;;1.63;100.00;100337.00;7399488;19;20171;-50
2022/02/01 07:51:51;;;;;;;6.18;1.38;;;;;;;1.58;100.00;100344.28;7398143;19;20592;-46
2022/02/01 07:54:23;;;;;;;10.57;2.03;;;;;;;1.60;100.00;100350.38;7402719;19;20119;-49
2022/02/01 07:56:53;;;;;;;7.10;1.80;;;;;;;1.64;100.00;100337.09;7394276;19;20190;-48
2022/02/01 07:59:22;;;;;;;11.45;2.10;;;;;;;1.64;100.00;100324.38;7403423;19;20553;-51
2022/02/01 08:01:52;;;;;;;11.13;2.00;;;;;;;1.68;100.00;100318.75;7396100;19;20190;-46
2022/02/01 08:04:21;;;;;;;13.23;1.80;;;;;;;1.72;100.00;100297.84;7401843;19;20162;-49
2022/02/01 08:06:51;;;;;;;7.75;1.85;;;;;;;1.69;100.00;100292.53;7387973;19;20197;-46
2022/02/01 08:09:30;;;;;;;5.87;1.30;;;;;;;1.70;100.00;100288.31;7398638;19;20127;-50
2022/02/01 08:12:01;;;;;;;4.78;1.60;;;;;;;1.70;100.00;100285.78;7395440;19;20430;-47
2022/02/01 08:15:39;;;;;;;13.25;2.72;;;;;;;1.75;100.00;100272.59;7400866;19;20137;-47
2022/02/01 08:17:45;;;;;;;7.55;1.30;;;;;;;1.76;100.00;100258.22;7396045;19;20257;-48
2022/02/01 08:20:19;;;;;;;2.40;1.00;;;;;;;1.81;100.00;100261.09;7398718;19;20133;-46
2022/02/01 08:25:34;;;;;;;4.32;1.63;;;;;;;1.85;100.00;100269.03;7397520;19;20149;-51
2022/02/01 08:28:04;;;;;;;9.10;1.77;;;;;;;1.85;100.00;100258.00;7396972;19;20184;-47
2022/02/01 08:30:34;;;;;;;13.32;2.42;;;;;;;1.94;100.00;100248.41;7399856;19;20127;-47
2022/02/01 08:33:05;;;;;;;7.03;1.35;;;;;;;1.90;100.00;100226.13;7397747;19;20195;-49
2022/02/01 08:35:34;;;;;;;6.13;1.17;;;;;;;1.87;100.00;100228.44;7397382;19;20216;-50
2022/02/01 08:38:21;;;;;;;7.38;2.15;;;;;;;1.90;100.00;100226.13;7397525;19;20181;-48
2022/02/01 08:40:53;;;;;;;9.55;1.85;;;;;;;1.97;100.00;100205.38;7394568;19;20515;-46
2022/02/01 08:43:22;;;;;;;3.05;0.95;;;;;;;1.94;100.00;100207.72;7396380;19;20133;-47
2022/02/01 08:45:52;;;;;;;5.63;3.35;;;;;;;2.03;100.00;100212.53;7393903;19;20432;-47
2022/02/01 08:48:22;;;;;;;10.00;2.35;;;;;;;1.96;100.00;100198.53;7405108;19;20187;-48
2022/02/01 08:50:52;;;;;;;10.95;3.28;;;;;;;2.00;100.00;100190.31;7401384;19;20171;-48
2022/02/01 08:53:24;;;;;;;29.83;4.88;;;;;;;2.08;100.00;100174.66;7405727;19;20178;-49
2022/02/01 08:56:06;;;;;;;11.17;4.73;;;;;;;2.08;100.00;100177.22;7400789;19;20428;-46
2022/02/01 08:58:36;;;;;;;16.10;3.38;;;;;;;2.23;100.00;100165.50;7404828;19;20391;-49
2022/02/01 09:01:06;;;;;;;19.30;6.63;;;;;;;2.18;100.00;100156.69;7402362;19;20254;-49
2022/02/01 09:03:36;;;;;;;8.38;2.15;;;;;;;2.26;100.00;100152.97;7402955;19;20119;-44
2022/02/01 09:06:06;;;;;;;21.52;5.63;;;;;;;2.32;100.00;100146.53;7406436;19;20163;-45
2022/02/01 09:08:36;;;;;;;34.13;9.18;;;;;;;2.40;100.00;100142.81;7394562;19;20146;-50
2022/02/01 09:11:08;;;;;;;19.37;6.93;;;;;;;2.59;100.00;100129.59;7402621;19;20139;-46
2022/02/01 09:13:38;;;;;;;5.00;2.10;;;;;;;2.51;100.00;100111.28;7398584;19;20382;-49
2022/02/01 09:16:08;;;;;;;31.13;6.27;;;;;;;2.42;100.00;100105.59;7400607;19;20902;-47
2022/02/01 09:18:38;;;;;;;9.07;2.38;;;;;;;2.40;100.00;100112.25;7402786;19;20889;-47
2022/02/01 09:21:08;;;;;;;20.93;3.90;;;;;;;2.44;100.00;100098.94;7403589;19;20119;-47
2022/02/01 09:23:37;;;;;;;10.98;3.58;;;;;;;2.44;100.00;100096.38;7402481;19;20395;-51
2022/02/01 09:26:09;;;;;;;9.90;2.97;;;;;;;2.47;100.00;100094.06;7404717;19;20159;-46
2022/02/01 09:28:39;;;;;;;8.30;1.50;;;;;;;2.41;100.00;100073.28;7404190;19;20398;-52
2022/02/01 09:31:10;;;;;;;5.63;1.70;;;;;;;2.41;100.00;100069.06;7396690;19;20418;-48
2022/02/01 09:33:40;;;;;;;9.17;1.83;;;;;;;2.42;100.00;100054.69;7404172;19;20394;-45
2022/02/01 09:36:09;;;;;;;9.30;2.80;;;;;;;2.38;100.00;100055.25;7399124;19;20443;-50
2022/02/01 09:38:39;;;;;;;9.17;1.70;;;;;;;2.32;100.00;100031.94;7398430;19;20389;-45
2022/02/01 09:41:11;;;;;;;5.73;1.27;;;;;;;2.31;100.00;100030.19;7403922;19;21123;-47
2022/02/01 09:43:40;;;;;;;4.03;1.87;;;;;;;2.27;100.00;100032.53;7399278;19;20425;-49
2022/02/01 09:46:10;;;;;;;5.70;1.77;;;;;;;2.28;100.00;100016.50;7401804;19;20418;-47
2022/02/01 09:48:47;;;;;;;5.60;1.43;;;;;;;2.18;100.00;100024.31;7400762;19;20486;-46
2022/02/01 09:51:17;;;;;;;7.35;2.35;;;;;;;2.06;100.00;100014.25;7403766;19;20449;-46
2022/02/01 09:54:04;;;;;;;9.70;1.67;;;;;;;2.01;100.00;100011.38;7400246;19;20463;-47
2022/02/01 09:56:36;;;;;;;3.00;1.35;;;;;;;2.06;100.00;99981.16;7401159;19;20553;-52
2022/02/01 09:59:16;;;;;;;7.00;1.58;;;;;;;2.01;100.00;99977.44;7400555;19;20185;-49
2022/02/01 10:01:54;;;;;;;2.75;1.27;;;;;;;1.92;100.00;99974.28;7403065;19;20125;-46
2022/02/01 10:04:27;;;;;;;11.32;2.05;;;;;;;1.88;100.00;99940.16;7398640;19;20182;-47
2022/02/01 10:07:07;;;;;;;3.92;1.30;;;;;;;1.81;100.00;99935.44;7403270;19;20171;-46
2022/02/01 10:09:37;;;;;;;4.70;2.13;;;;;;;1.83;100.00;99936.41;7403240;19;20186;-50
2022/02/01 10:12:17;;;;;;;12.85;2.67;;;;;;;1.87;100.00;99920.59;7407739;19;20404;-49
2022/02/01 10:14:53;;;;;;;2.58;2.00;;;;;;;1.82;100.00;99916.84;7394164;19;20511;-45
2022/02/01 10:17:32;;;;;;;9.25;3.67;;;;;;;1.86;100.00;99901.00;7403931;19;20158;-48
2022/02/01 10:20:02;;;;;;;6.28;3.72;;;;;;;1.80;100.00;99890.44;7400196;19;20583;-45
2022/02/01 10:22:33;;;;;;;12.82;4.38;;;;;;;1.81;100.00;99887.13;7402024;19;20446;-47
2022/02/01 10:25:05;;;;;;;5.00;1.88;;;;;;;1.75;100.00;99873.22;7398637;19;20210;-48
2022/02/01 10:27:41;;;;;;;19.17;5.22;;;;;;;1.75;100.00;99864.72;7399389;19;20154;-46
2022/02/01 10:30:15;;;;;;;9.52;4.90;;;;;;;1.77;100.00;99826.66;7399402;19;20192;-46
2022/02/01 10:35:55;;;;;;;7.50;4.57;;;;;;;1.87;100.00;99811.19;7398890;19;20187;-51
2022/02/01 10:38:32;;;;;;;32.50;10.43;;;;;;;1.94;100.00;99803.13;7399358;19;20186;-47
2022/02/01 10:41:01;;;;;;;25.30;8.95;;;;;;;1.91;100.00;99789.34;7401728;19;20123;-46
2022/02/01 10:43:35;;;;;;;19.83;8.98;;;;;;;1.94;100.00;99777.69;7376796;19;20186;-45
2022/02/01 10:46:07;;;;;;;20.42;7.95;;;;;;;1.99;100.00;99767.78;7398999;19;20159;-46
2022/02/01 10:48:38;;;;;;;18.45;6.45;;;;;;;2.02;100.00;99748.50;7398327;19;20183;-51
2022/02/01 10:51:08;;;;;;;33.22;10.68;;;;;;;2.02;100.00;99738.31;7401886;19;20119;-50
2022/02/01 10:53:39;;;;;;;14.70;5.10;;;;;;;2.09;100.00;99723.41;7398261;19;20187;-50
2022/02/01 10:56:10;;;;;;;5.78;3.58;;;;;;;2.00;100.00;99729.72;7400030;19;20155;-47
2022/02/01 10:58:43;;;;;;;11.95;4.38;;;;;;;2.02;100.00;99707.78;7397931;19;20194;-52
2022/02/01 11:01:13;;;;;;;6.43;3.15;;;;;;;1.99;100.00;99696.53;7405243;19;20138;-52
2022/02/01 11:03:44;;;;;;;10.98;4.60;;;;;;;2.00;100.00;99696.63;7398095;19;20188;-49
2022/02/01 11:06:15;;;;;;;8.82;4.95;;;;;;;2.01;100.00;99679.72;7399778;19;20159;-56
2022/02/01 11:08:46;;;;;;;14.00;5.53;;;;;;;2.07;100.00;99669.91;7396388;19;20207;-54
2022/02/01 11:11:23;;;;;;;15.00;4.87;;;;;;;2.15;100.00;99667.78;7400521;19;20123;-54
2022/02/01 11:13:55;;;;;;;9.10;4.90;;;;;;;2.14;100.00;99627.84;7392812;19;20431;-54
2022/02/01 11:16:26;;;;;;;3.95;2.33;;;;;;;2.10;100.00;99631.03;7401897;19;20159;-49
2022/02/01 11:18:58;;;;;;;8.43;3.95;;;;;;;2.10;100.00;99628.50;7396221;19;20192;-52
2022/02/01 11:21:28;;;;;;;13.45;4.60;;;;;;;2.22;100.00;99602.84;7400600;19;20125;-53
2022/02/01 11:24:00;;;;;;;7.15;2.40;;;;;;;2.23;100.00;99612.22;7395874;19;20585;-50
2022/02/01 11:26:36;;;;;;;45.95;11.95;;;;;;;2.27;100.00;99596.34;7398557;19;20178;-52
2022/02/01 11:29:38;;;;;;;12.50;5.43;;;;;;;2.27;100.00;99578.53;7395934;19;20209;-52
2022/02/01 11:32:20;;;;;;;8.25;4.50;;;;;;;2.34;100.00;99567.91;7400130;19;20399;-53
2022/02/01 11:35:13;;;;;;;11.50;5.47;;;;;;;2.33;100.00;99555.06;7394526;19;20188;-54
2022/02/01 11:38:05;;;;;;;8.43;3.83;;;;;;;2.34;100.00;99564.47;7401758;19;20141;-51
2022/02/01 11:40:37;;;;;;;3.63;2.20;;;;;;;2.39;100.00;99566.50;7401107;19;20162;-56
2022/02/01 11:43:28;;;;;;;15.17;6.10;;;;;;;2.47;100.00;99543.13;7396988;19;20407;-59
2022/02/01 11:46:08;;;;;;;10.87;5.97;;;;;;;2.58;100.00;99564.06;7401492;19;20428;-53
2022/02/01 11:48:41;;;;;;;5.57;3.93;;;;;;;2.55;100.00;99547.84;7374499;19;20408;-57
2022/02/01 11:51:12;;;;;;;6.00;3.47;;;;;;;2.58;100.00;99530.97;7398424;19;20405;-56
2022/02/01 11:53:43;;;;;;;10.03;4.30;;;;;;;2.61;100.00;99520.97;7396247;19;20869;-58
2022/02/01 11:56:16;;;;;;;13.00;5.23;;;;;;;2.70;100.00;99501.06;7398050;19;20833;-56
2022/02/01 11:58:49;;;;;;;13.10;4.45;;;;;;;2.77;100.00;99489.53;7390632;19;20426;-57
2022/02/01 12:01:28;;;;;;;6.50;3.30;;;;;;;2.85;100.00;99490.81;7399208;19;20129;-59
2022/02/01 12:04:05;;;;;;;12.90;6.10;;;;;;;2.93;100.00;99460.63;7395950;19;20450;-59
2022/02/01 12:06:41;;;;;;;8.33;4.63;;;;;;;3.00;100.00;99459.25;7396947;19;20442;-58
2022/02/01 12:09:16;;;;;;;10.13;4.80;;;;;;;3.08;100.00;99451.22;7396054;19;20429;-59
2022/02/01 12:11:46;;;;;;;11.40;5.50;;;;;;;3.02;100.00;99438.16;7398734;19;20380;-60
2022/02/01 12:14:15;;;;;;;5.47;2.80;;;;;;;3.06;100.00;99444.28;7395763;19;20434;-59
2022/02/01 12:16:52;;;;;;;4.03;2.40;;;;;;;3.13;100.00;99435.28;7396658;19;20480;-56
2022/02/01 12:19:26;;;;;;;9.50;5.27;;;;;;;3.23;100.00;99440.06;7390022;19;20421;-60
2022/02/01 12:22:00;;;;;;;3.33;2.40;;;;;;;3.22;100.00;99433.19;7398496;19;20389;-58
2022/02/01 12:24:30;;;;;;;5.50;3.53;;;;;;;3.29;100.00;99431.84;7394777;19;20427;-60
2022/02/01 12:26:59;;;;;;;4.50;3.10;;;;;;;3.37;100.00;99431.44;7397082;19;20442;-58
2022/02/01 12:29:29;;;;;;;4.63;2.83;;;;;;;3.44;100.00;99429.19;7395639;19;20687;-58
2022/02/01 12:32:08;;;;;;;4.97;2.93;;;;;;;3.43;100.00;99404.47;7398268;19;20384;-60
2022/02/01 12:34:38;;;;;;;3.30;2.17;;;;;;;3.46;100.00;99410.59;7371715;19;20418;-58
2022/02/01 12:37:08;;;;;;;4.37;2.63;;;;;;;3.50;100.00;99386.13;7396179;19;20418;-56
2022/02/01 12:39:43;;;;;;;3.23;2.27;;;;;;;3.50;100.00;99381.03;7393814;19;20474;-58
2022/02/01 12:42:16;;;;;;;2.40;1.90;;;;;;;3.56;100.00;99373.66;7398114;19;20390;-59
2022/02/01 12:47:30;;;;;;;3.70;2.43;;;;;;;3.70;100.00;99353.03;7392407;19;20437;-59
2022/02/01 12:50:14;;;;;;;2.67;1.30;;;;;;;3.76;100.00;99340.56;7386871;19;20415;-60